Terminal Aerodrome Forecast
Issued by NWS Grand Forks, ND

Home | Current Version | Previous Version | Text Only | Print | Product List | Glossary Off
Versions: 1 2 3 4 5 6 7 8 9 10 11 12 13 14 15 16 17 18

000
FTUS43 KFGF 202212 AAA
TAFGFK
TAF AMD
KGFK 202212Z 2022/2118 32010KT P6SM FEW250
     FM210100 VRB06KT P6SM SCT250
     FM211100 VRB04KT P6SM BKN200
     FM211700 24007KT P6SM BKN140=

USA.gov is the U.S. government's official web portal to all federal, state and local government web resources and services.